Time;durP1;ratioP1;P1;durP2;ratioP2;P2;SDS_P1;SDS_P2;PMS_P1;PMS_P2;Temp;Humidity;BMP_temperature;BMP_pressure;BME280_temperature;BME280_humidity;BME280_pressure;Samples;Min_cycle;Max_cycle;Signal;HPM_P1;HPM_P2
2023/12/19 00:02:00;;;;;;;11.60;6.87;;;4.80;99.90;;;;;;5076301;28;20178;-43
2023/12/19 00:04:39;;;;;;;13.97;7.20;;;4.70;99.90;;;;;;5057580;28;20635;-43
2023/12/19 00:07:08;;;;;;;10.73;7.07;;;4.70;99.90;;;;;;5057783;28;20219;-44
2023/12/19 00:09:35;;;;;;;15.33;6.83;;;4.70;99.90;;;;;;5057978;28;20197;-44
2023/12/19 00:12:04;;;;;;;12.60;6.57;;;4.70;99.90;;;;;;5075831;28;20182;-42
2023/12/19 00:14:33;;;;;;;9.60;6.30;;;4.70;99.90;;;;;;5075667;28;20190;-43
2023/12/19 00:17:00;;;;;;;9.17;5.90;;;4.70;99.90;;;;;;5075257;28;20184;-42
2023/12/19 00:19:25;;;;;;;10.93;6.53;;;4.80;99.90;;;;;;5057777;28;20233;-43
2023/12/19 00:21:56;;;;;;;9.90;5.90;;;4.70;99.90;;;;;;5075214;28;20306;-43
2023/12/19 00:24:22;;;;;;;9.53;5.73;;;4.80;99.90;;;;;;5075649;28;20223;-44
2023/12/19 00:26:48;;;;;;;8.77;6.10;;;4.80;99.90;;;;;;5076163;28;20275;-45
2023/12/19 00:29:13;;;;;;;6.70;4.53;;;4.80;99.90;;;;;;5058198;28;20199;-45
2023/12/19 00:31:43;;;;;;;9.13;6.10;;;4.80;99.90;;;;;;5057600;28;20223;-43
2023/12/19 00:34:18;;;;;;;10.73;6.07;;;4.80;99.90;;;;;;5075209;28;20545;-44
2023/12/19 00:36:44;;;;;;;11.27;6.97;;;4.80;99.90;;;;;;5075111;28;20696;-44
2023/12/19 00:43:20;;;;;;;6.97;4.43;;;4.80;99.90;;;;;;5074968;28;20177;-42
2023/12/19 00:45:49;;;;;;;7.93;5.40;;;4.80;99.90;;;;;;5074795;28;20658;-42
2023/12/19 00:48:18;;;;;;;9.20;6.40;;;4.90;99.90;;;;;;5074874;28;20177;-41
2023/12/19 00:50:46;;;;;;;7.87;4.87;;;4.90;99.90;;;;;;5074502;28;20198;-43
2023/12/19 00:53:15;;;;;;;12.80;6.13;;;4.90;99.90;;;;;;5074678;28;20654;-43
2023/12/19 00:59:04;;;;;;;8.10;5.03;;;4.90;99.90;;;;;;5074535;28;20160;-42
2023/12/19 01:01:32;;;;;;;9.13;5.27;;;4.90;99.90;;;;;;5074664;28;20187;-42
2023/12/19 01:04:00;;;;;;;10.93;6.40;;;5.00;99.90;;;;;;5074817;28;20181;-43
2023/12/19 01:06:26;;;;;;;7.23;4.80;;;4.90;99.90;;;;;;5074524;28;20187;-43
2023/12/19 01:08:54;;;;;;;9.87;5.70;;;5.00;99.90;;;;;;5074391;28;20185;-42
2023/12/19 01:11:19;;;;;;;7.97;5.37;;;4.90;99.90;;;;;;5074457;28;20182;-43
2023/12/19 01:13:55;;;;;;;8.77;6.00;;;5.00;99.90;;;;;;5074046;28;20192;-41
2023/12/19 01:16:21;;;;;;;7.87;5.10;;;5.00;99.90;;;;;;5074042;28;20255;-44
2023/12/19 01:18:47;;;;;;;10.07;6.07;;;5.00;99.90;;;;;;5074280;28;20597;-42
2023/12/19 01:21:14;;;;;;;9.23;6.37;;;5.00;99.90;;;;;;5073968;28;20188;-42
2023/12/19 01:23:43;;;;;;;11.17;6.63;;;5.00;99.90;;;;;;5056074;28;20219;-43
2023/12/19 01:26:09;;;;;;;10.47;6.47;;;5.00;99.90;;;;;;5073876;28;20680;-42
2023/12/19 01:28:40;;;;;;;8.63;5.87;;;5.00;99.90;;;;;;5056104;28;20185;-43
2023/12/19 01:31:11;;;;;;;10.07;6.13;;;5.10;99.90;;;;;;5074375;28;20197;-42
2023/12/19 01:33:38;;;;;;;10.03;6.37;;;5.10;99.90;;;;;;5074898;28;20175;-44
2023/12/19 01:36:04;;;;;;;10.73;6.27;;;5.10;99.90;;;;;;5073685;28;20185;-42
2023/12/19 01:38:31;;;;;;;9.77;6.10;;;5.10;99.90;;;;;;5073610;28;20193;-42
2023/12/19 01:41:00;;;;;;;12.67;7.17;;;5.10;99.90;;;;;;5073927;28;20221;-44
2023/12/19 01:46:47;;;;;;;9.00;5.30;;;5.10;99.90;;;;;;5073713;28;20172;-42
2023/12/19 01:49:18;;;;;;;7.37;5.50;;;5.10;99.90;;;;;;5073455;28;20293;-44
2023/12/19 01:51:43;;;;;;;11.00;7.10;;;5.20;99.90;;;;;;5073763;28;20568;-43
2023/12/19 01:54:10;;;;;;;13.80;6.87;;;5.20;99.90;;;;;;5073644;28;20180;-43
2023/12/19 01:56:36;;;;;;;10.13;6.20;;;5.20;99.90;;;;;;5073610;28;20265;-42
2023/12/19 01:59:07;;;;;;;11.37;7.00;;;5.20;99.90;;;;;;5073184;28;20240;-42
2023/12/19 02:01:41;;;;;;;10.23;6.43;;;5.20;99.90;;;;;;5072841;28;20681;-42
2023/12/19 02:04:12;;;;;;;11.33;7.40;;;5.20;99.90;;;;;;5069082;28;20213;-42
2023/12/19 02:07:08;;;;;;;12.60;7.67;;;5.20;99.90;;;;;;5073753;28;20206;-42
2023/12/19 02:09:34;;;;;;;11.23;7.30;;;5.20;99.90;;;;;;5073330;28;20196;-43
2023/12/19 02:12:04;;;;;;;11.53;7.17;;;5.20;99.90;;;;;;5054847;28;20201;-42
2023/12/19 02:14:30;;;;;;;8.47;5.57;;;5.20;99.90;;;;;;5055284;28;20225;-43
2023/12/19 02:16:56;;;;;;;11.33;6.93;;;5.20;99.90;;;;;;5073297;28;20206;-41
2023/12/19 02:19:22;;;;;;;9.73;6.40;;;5.30;99.90;;;;;;5055535;28;20268;-42
2023/12/19 02:21:56;;;;;;;12.73;6.53;;;5.30;99.90;;;;;;5073235;28;20186;-46
2023/12/19 02:24:24;;;;;;;10.87;6.37;;;5.30;99.90;;;;;;5073083;28;20232;-44
2023/12/19 02:26:53;;;;;;;9.53;6.27;;;5.30;99.90;;;;;;5072989;28;20171;-41
2023/12/19 02:29:18;;;;;;;8.07;5.97;;;5.30;99.90;;;;;;5021970;28;20235;-44
2023/12/19 02:31:44;;;;;;;9.87;5.77;;;5.40;99.90;;;;;;5073409;28;20590;-42
2023/12/19 02:34:09;;;;;;;10.90;6.20;;;5.30;99.90;;;;;;5073100;28;20651;-44
2023/12/19 02:36:42;;;;;;;11.80;6.93;;;5.60;99.90;;;;;;5073396;28;20183;-44
2023/12/19 02:39:10;;;;;;;11.37;7.20;;;5.40;99.90;;;;;;5073197;28;20202;-44
2023/12/19 02:41:39;;;;;;;12.10;6.43;;;5.40;99.90;;;;;;5073258;28;20178;-42
2023/12/19 02:44:08;;;;;;;8.93;6.33;;;5.40;99.90;;;;;;5073188;28;20700;-43
2023/12/19 02:46:34;;;;;;;10.30;6.23;;;5.40;99.90;;;;;;5055449;28;20190;-46
2023/12/19 02:49:00;;;;;;;10.90;6.50;;;5.40;99.90;;;;;;5073101;28;20665;-42
2023/12/19 02:51:26;;;;;;;11.70;6.83;;;5.40;99.90;;;;;;5074439;28;20206;-42
2023/12/19 02:53:56;;;;;;;9.43;6.17;;;5.50;99.90;;;;;;5076988;28;20179;-47
2023/12/19 02:56:21;;;;;;;11.07;6.50;;;5.50;99.90;;;;;;5077164;28;20178;-47
2023/12/19 02:58:47;;;;;;;11.37;6.73;;;5.50;99.90;;;;;;5076947;28;20709;-46
2023/12/19 03:01:13;;;;;;;10.17;5.97;;;5.50;99.90;;;;;;5059048;28;20179;-47
2023/12/19 03:03:44;;;;;;;8.33;5.53;;;5.50;99.90;;;;;;5077081;28;20181;-46
2023/12/19 03:06:14;;;;;;;8.93;6.03;;;5.50;99.90;;;;;;5058744;28;20225;-45
2023/12/19 03:08:49;;;;;;;10.93;6.73;;;5.50;99.90;;;;;;5076963;28;20180;-46
2023/12/19 03:11:14;;;;;;;9.10;6.47;;;5.50;99.90;;;;;;5076591;28;20178;-46
2023/12/19 03:13:40;;;;;;;9.30;6.40;;;5.50;99.90;;;;;;5063230;28;20209;-47
2023/12/19 03:16:06;;;;;;;9.53;6.40;;;5.50;99.90;;;;;;5048051;28;20187;-49
2023/12/19 03:18:38;;;;;;;11.93;6.27;;;5.60;99.90;;;;;;5081937;28;20186;-47
2023/12/19 03:21:04;;;;;;;10.20;6.10;;;5.60;99.90;;;;;;5081961;28;20608;-47
2023/12/19 03:23:29;;;;;;;10.90;5.83;;;5.50;99.90;;;;;;5058614;28;20189;-46
2023/12/19 03:25:55;;;;;;;8.83;6.20;;;5.50;99.90;;;;;;5058278;28;20201;-47
2023/12/19 03:28:22;;;;;;;14.03;6.77;;;5.60;99.90;;;;;;5076101;28;20267;-47
2023/12/19 03:30:47;;;;;;;8.73;5.70;;;5.60;99.90;;;;;;5076088;28;20230;-48
2023/12/19 03:33:14;;;;;;;8.97;6.20;;;5.60;99.90;;;;;;5076485;28;20213;-47
2023/12/19 03:35:40;;;;;;;8.03;5.80;;;5.60;99.90;;;;;;5076025;28;20262;-47
2023/12/19 03:38:07;;;;;;;8.13;5.90;;;5.70;99.90;;;;;;5058415;28;20328;-46
2023/12/19 03:40:35;;;;;;;8.63;5.40;;;5.60;99.90;;;;;;5076189;28;20210;-47
2023/12/19 03:43:02;;;;;;;9.83;5.67;;;5.70;99.90;;;;;;5057770;28;20198;-46
2023/12/19 03:45:32;;;;;;;9.13;5.53;;;5.60;99.90;;;;;;5058383;28;20215;-47
2023/12/19 03:48:04;;;;;;;8.33;5.50;;;5.70;99.90;;;;;;5076120;28;20178;-47
2023/12/19 03:50:32;;;;;;;8.57;4.83;;;5.70;99.90;;;;;;5057830;28;20199;-47
2023/12/19 03:52:57;;;;;;;9.33;4.70;;;5.70;99.90;;;;;;5057938;28;20752;-47
2023/12/19 03:55:23;;;;;;;10.13;5.17;;;5.70;99.90;;;;;;5076018;28;20189;-48
2023/12/19 03:58:44;;;;;;;7.53;4.80;;;5.80;99.90;;;;;;5075777;28;20184;-47
2023/12/19 04:01:11;;;;;;;7.87;4.70;;;5.80;99.90;;;;;;5075956;28;20179;-47
2023/12/19 04:03:38;;;;;;;10.73;5.40;;;5.80;99.90;;;;;;5039926;28;20218;-47
2023/12/19 04:06:04;;;;;;;6.90;4.60;;;5.90;99.90;;;;;;5057926;28;20370;-47
2023/12/19 04:08:32;;;;;;;7.47;4.97;;;5.90;99.90;;;;;;5057742;28;20213;-48
2023/12/19 04:10:58;;;;;;;8.70;5.17;;;5.90;99.90;;;;;;5075426;28;20604;-47
2023/12/19 04:13:25;;;;;;;7.47;5.07;;;5.90;99.90;;;;;;5075535;28;20172;-46
2023/12/19 04:15:51;;;;;;;7.13;5.07;;;6.00;99.90;;;;;;5075635;28;20187;-48
2023/12/19 04:18:17;;;;;;;6.87;4.80;;;6.00;99.90;;;;;;5075700;28;20187;-46
2023/12/19 04:20:43;;;;;;;6.93;5.07;;;6.00;99.90;;;;;;5075111;28;20687;-47
2023/12/19 04:23:10;;;;;;;6.67;4.13;;;6.00;99.90;;;;;;5057517;28;20650;-47
2023/12/19 04:25:39;;;;;;;6.40;4.57;;;6.00;99.90;;;;;;5057383;28;20202;-48
2023/12/19 04:28:06;;;;;;;6.30;4.03;;;6.10;99.90;;;;;;5057519;28;20221;-47
2023/12/19 04:30:32;;;;;;;5.17;3.73;;;6.10;99.90;;;;;;5075198;28;20675;-47
2023/12/19 04:33:04;;;;;;;6.27;2.70;;;6.10;99.90;;;;;;5057883;28;20271;-47
2023/12/19 04:35:29;;;;;;;4.77;3.57;;;6.10;99.90;;;;;;5076185;28;20186;-47
2023/12/19 04:37:58;;;;;;;5.37;4.00;;;6.10;99.90;;;;;;5057855;28;20197;-48
2023/12/19 04:40:24;;;;;;;7.03;4.23;;;6.10;99.90;;;;;;5056983;28;20687;-48
2023/12/19 04:42:51;;;;;;;8.03;4.63;;;6.10;99.90;;;;;;5074798;28;20253;-48
2023/12/19 04:45:16;;;;;;;5.47;3.83;;;6.10;99.90;;;;;;5075053;28;20662;-47
2023/12/19 04:47:42;;;;;;;5.93;4.30;;;6.20;99.90;;;;;;5056883;28;20237;-47
2023/12/19 04:50:08;;;;;;;4.40;3.20;;;6.20;99.90;;;;;;5057552;28;20200;-48
2023/12/19 04:52:43;;;;;;;5.67;3.60;;;6.20;99.90;;;;;;5075615;28;20175;-47
2023/12/19 04:55:10;;;;;;;6.60;4.10;;;6.20;99.90;;;;;;5075319;28;20190;-50
2023/12/19 04:57:39;;;;;;;6.20;3.63;;;6.20;99.90;;;;;;5056807;28;20187;-44
2023/12/19 05:00:06;;;;;;;5.50;4.07;;;6.20;99.90;;;;;;5074638;28;20327;-43
2023/12/19 05:02:32;;;;;;;4.73;3.97;;;6.20;99.90;;;;;;5074413;28;20186;-40
2023/12/19 05:05:07;;;;;;;7.67;3.80;;;6.20;99.90;;;;;;5056887;28;20211;-43
2023/12/19 05:07:36;;;;;;;5.23;3.90;;;6.20;99.90;;;;;;5074397;28;20181;-44
2023/12/19 05:10:05;;;;;;;5.27;3.40;;;6.20;99.90;;;;;;5074146;28;20194;-43
2023/12/19 05:12:31;;;;;;;6.40;3.50;;;6.20;99.90;;;;;;5074130;28;20186;-42
2023/12/19 05:14:58;;;;;;;4.77;3.70;;;6.20;99.90;;;;;;5073996;28;20190;-44
2023/12/19 05:17:23;;;;;;;5.17;3.60;;;6.20;99.90;;;;;;5056620;28;20184;-42
2023/12/19 05:19:49;;;;;;;5.60;3.70;;;6.20;99.90;;;;;;5073956;28;20268;-44
2023/12/19 05:22:15;;;;;;;6.23;3.33;;;6.20;99.90;;;;;;5056359;28;20650;-43
2023/12/19 05:24:42;;;;;;;5.80;3.70;;;6.30;99.90;;;;;;5073931;28;20207;-41
2023/12/19 05:27:07;;;;;;;5.43;3.53;;;6.20;99.90;;;;;;5074242;28;20179;-42
2023/12/19 05:29:33;;;;;;;4.70;3.27;;;6.30;99.90;;;;;;5073854;28;20217;-42
2023/12/19 05:32:01;;;;;;;4.20;2.67;;;6.30;99.90;;;;;;5074168;28;20179;-40
2023/12/19 05:34:27;;;;;;;3.33;2.40;;;6.30;99.90;;;;;;5056175;28;20185;-44
2023/12/19 05:36:54;;;;;;;6.73;3.23;;;6.30;99.90;;;;;;5073759;28;20217;-44
2023/12/19 05:40:17;;;;;;;2.97;2.10;;;6.30;99.90;;;;;;5056156;28;20681;-43
2023/12/19 05:42:54;;;;;;;3.83;2.37;;;6.30;99.90;;;;;;5074009;28;20269;-43
2023/12/19 05:48:43;;;;;;;4.27;2.70;;;6.40;99.90;;;;;;5073721;28;20198;-42
2023/12/19 05:51:12;;;;;;;3.70;2.77;;;6.40;99.90;;;;;;5055800;28;20199;-43
2023/12/19 05:53:38;;;;;;;2.50;2.07;;;6.40;99.90;;;;;;5073771;28;20172;-43
2023/12/19 05:56:05;;;;;;;4.10;2.80;;;6.40;99.90;;;;;;5056080;28;20207;-42
2023/12/19 05:58:36;;;;;;;2.83;2.07;;;6.40;99.90;;;;;;5073037;28;20202;-45
2023/12/19 06:01:03;;;;;;;4.93;2.93;;;6.40;99.90;;;;;;5073521;28;20206;-45
2023/12/19 06:03:29;;;;;;;3.83;2.70;;;6.50;99.90;;;;;;5073801;28;20198;-41
2023/12/19 06:05:55;;;;;;;3.60;2.90;;;6.50;99.90;;;;;;5072689;28;20214;-46
2023/12/19 06:08:21;;;;;;;5.30;3.20;;;6.50;99.90;;;;;;5055995;28;20191;-45
2023/12/19 06:10:47;;;;;;;3.40;2.37;;;6.50;99.90;;;;;;5055567;28;20207;-42
2023/12/19 06:13:31;;;;;;;4.33;3.30;;;6.50;99.90;;;;;;5073323;28;20595;-42
2023/12/19 06:16:01;;;;;;;3.53;2.33;;;6.50;99.90;;;;;;5073519;28;20180;-43
2023/12/19 06:18:26;;;;;;;4.77;3.37;;;6.60;99.90;;;;;;5074294;28;20220;-44
2023/12/19 06:20:52;;;;;;;4.87;3.23;;;6.60;99.90;;;;;;5073209;28;20254;-43
2023/12/19 06:23:19;;;;;;;2.57;2.00;;;6.60;99.90;;;;;;5074317;28;20187;-41
2023/12/19 06:25:44;;;;;;;5.20;3.47;;;6.60;99.90;;;;;;5055724;28;20356;-43
2023/12/19 06:28:10;;;;;;;5.40;3.20;;;6.60;99.90;;;;;;5077663;28;20254;-42
2023/12/19 06:30:39;;;;;;;5.43;3.43;;;6.60;99.90;;;;;;5078501;28;20261;-42
2023/12/19 06:33:07;;;;;;;7.10;4.07;;;6.60;99.90;;;;;;5077351;28;20175;-43
2023/12/19 06:35:40;;;;;;;4.80;4.27;;;6.60;99.90;;;;;;5077428;28;20705;-43
2023/12/19 06:38:06;;;;;;;6.20;4.33;;;6.60;99.90;;;;;;5077838;28;20163;-44
2023/12/19 06:40:34;;;;;;;3.83;2.83;;;6.50;99.90;;;;;;5077571;28;20207;-42
2023/12/19 06:43:04;;;;;;;5.20;3.53;;;6.50;99.90;;;;;;5077415;28;20202;-42
2023/12/19 06:45:32;;;;;;;5.70;3.70;;;6.50;99.90;;;;;;5059947;28;20203;-43
2023/12/19 06:48:00;;;;;;;5.70;3.80;;;6.50;99.90;;;;;;5077243;28;20219;-42
2023/12/19 06:50:26;;;;;;;9.23;4.50;;;6.50;99.90;;;;;;5076782;28;20198;-43
2023/12/19 06:52:51;;;;;;;4.93;3.67;;;6.50;99.90;;;;;;5077162;28;20636;-44
2023/12/19 06:55:24;;;;;;;9.53;5.17;;;6.50;99.90;;;;;;5077063;28;20198;-43
2023/12/19 06:57:57;;;;;;;7.57;4.30;;;6.50;99.90;;;;;;5077080;28;20242;-43
2023/12/19 07:00:23;;;;;;;5.57;3.57;;;6.50;99.90;;;;;;5077105;28;20226;-44
2023/12/19 07:02:50;;;;;;;9.60;4.97;;;6.50;99.90;;;;;;5077376;28;20226;-44
2023/12/19 07:05:18;;;;;;;5.33;3.33;;;6.50;99.90;;;;;;5076558;28;20199;-44
2023/12/19 07:07:56;;;;;;;7.87;3.90;;;6.50;99.90;;;;;;5076740;28;20172;-43
2023/12/19 07:10:25;;;;;;;7.60;4.50;;;6.50;99.90;;;;;;5076754;28;20199;-46
2023/12/19 07:12:54;;;;;;;7.20;4.33;;;6.50;99.90;;;;;;5076720;28;20182;-44
2023/12/19 07:15:20;;;;;;;5.90;4.17;;;6.50;99.90;;;;;;5076819;28;20187;-46
2023/12/19 07:17:50;;;;;;;5.17;3.93;;;6.50;99.90;;;;;;5058935;28;20530;-47
2023/12/19 07:20:17;;;;;;;5.70;3.23;;;6.50;99.90;;;;;;5076345;28;20222;-46
2023/12/19 07:26:05;;;;;;;3.93;3.03;;;6.60;99.90;;;;;;5076305;28;20209;-46
2023/12/19 07:28:31;;;;;;;9.27;4.20;;;6.60;99.90;;;;;;5076183;28;20631;-46
2023/12/19 07:31:00;;;;;;;7.00;3.13;;;6.60;99.90;;;;;;5076745;28;20206;-47
2023/12/19 07:33:27;;;;;;;6.17;3.70;;;6.60;99.90;;;;;;5076927;28;20521;-47
2023/12/19 07:35:54;;;;;;;6.57;4.30;;;6.60;99.90;;;;;;5076285;28;20190;-48
2023/12/19 07:38:23;;;;;;;8.63;3.90;;;6.60;99.90;;;;;;5058043;28;20194;-47
2023/12/19 07:40:49;;;;;;;6.90;3.50;;;6.60;99.90;;;;;;5058076;28;20206;-47
2023/12/19 07:43:15;;;;;;;6.60;3.93;;;6.70;99.90;;;;;;5075993;28;20650;-49
2023/12/19 07:45:42;;;;;;;5.50;3.80;;;6.70;99.90;;;;;;5075835;28;20227;-47
2023/12/19 07:48:11;;;;;;;5.50;3.73;;;6.80;99.90;;;;;;5058416;28;20175;-46
2023/12/19 07:50:36;;;;;;;6.47;4.00;;;6.80;99.90;;;;;;5057900;28;20209;-47
2023/12/19 07:53:03;;;;;;;7.23;4.07;;;6.80;99.90;;;;;;5076117;28;20180;-45
2023/12/19 07:55:29;;;;;;;8.23;4.10;;;6.90;99.90;;;;;;5075986;28;20183;-47
2023/12/19 07:57:55;;;;;;;7.77;4.57;;;6.90;99.90;;;;;;5076457;28;20179;-47
2023/12/19 08:00:26;;;;;;;8.10;3.33;;;6.90;99.90;;;;;;5076595;28;20261;-45
2023/12/19 08:02:57;;;;;;;6.50;3.43;;;6.90;99.90;;;;;;5064638;28;20684;-43
2023/12/19 08:05:23;;;;;;;5.13;3.73;;;6.90;99.90;;;;;;5075926;28;20647;-45
2023/12/19 08:07:50;;;;;;;3.93;2.70;;;7.00;99.90;;;;;;5075601;28;20186;-43
2023/12/19 08:10:17;;;;;;;7.67;3.57;;;7.00;99.90;;;;;;5075705;28;20206;-42
2023/12/19 08:12:42;;;;;;;6.43;4.10;;;6.90;99.90;;;;;;5075903;28;20528;-43
2023/12/19 08:15:12;;;;;;;4.23;3.07;;;7.00;99.90;;;;;;5076003;28;20194;-43
2023/12/19 08:17:41;;;;;;;8.30;3.67;;;7.00;99.90;;;;;;5075693;28;20175;-42
2023/12/19 08:20:10;;;;;;;4.53;3.60;;;7.00;99.90;;;;;;5075320;28;20203;-44
2023/12/19 08:22:36;;;;;;;8.00;4.00;;;7.00;99.90;;;;;;5075075;28;20206;-43
2023/12/19 08:25:03;;;;;;;7.70;3.53;;;7.00;99.90;;;;;;5057393;28;20802;-43
2023/12/19 08:27:34;;;;;;;6.23;3.83;;;7.00;99.90;;;;;;5075351;28;20578;-43
2023/12/19 08:30:04;;;;;;;4.20;2.50;;;7.10;99.90;;;;;;5074395;28;20215;-44
2023/12/19 08:32:31;;;;;;;9.23;3.13;;;7.10;99.90;;;;;;5075350;28;20195;-45
2023/12/19 08:34:59;;;;;;;6.63;3.80;;;7.10;99.90;;;;;;5075287;28;20179;-44
2023/12/19 08:37:28;;;;;;;5.13;3.20;;;7.20;99.90;;;;;;5074935;28;20659;-43
2023/12/19 08:39:56;;;;;;;4.87;2.83;;;7.20;99.90;;;;;;5074968;28;20200;-44
2023/12/19 08:42:25;;;;;;;5.53;3.30;;;7.20;99.90;;;;;;5075043;28;20639;-43
2023/12/19 08:48:13;;;;;;;6.53;2.90;;;7.30;99.90;;;;;;5074671;28;20206;-43
2023/12/19 08:50:38;;;;;;;3.80;2.30;;;7.30;99.90;;;;;;5074216;28;20202;-43
2023/12/19 08:53:05;;;;;;;4.77;2.80;;;7.30;99.90;;;;;;5074668;28;20176;-43
2023/12/19 08:55:30;;;;;;;5.57;3.00;;;7.40;99.90;;;;;;5051815;28;20202;-44
2023/12/19 08:57:57;;;;;;;6.67;3.40;;;7.50;99.90;;;;;;5074843;28;20184;-44
2023/12/19 09:00:33;;;;;;;5.90;2.87;;;7.50;99.90;;;;;;5063492;28;20248;-44
2023/12/19 09:03:05;;;;;;;4.67;2.83;;;7.50;99.90;;;;;;5074535;28;20244;-43
2023/12/19 09:05:32;;;;;;;9.40;3.10;;;7.50;99.90;;;;;;5074803;28;20198;-42
2023/12/19 09:07:58;;;;;;;6.80;3.23;;;7.50;99.90;;;;;;5074471;28;20183;-43
2023/12/19 09:10:25;;;;;;;4.50;2.30;;;7.60;99.90;;;;;;5074599;28;20214;-43
2023/12/19 09:12:51;;;;;;;5.87;2.47;;;7.60;99.90;;;;;;5074329;28;20180;-43
2023/12/19 09:15:21;;;;;;;4.87;2.83;;;7.60;99.90;;;;;;5056471;28;20670;-46
2023/12/19 09:17:53;;;;;;;3.60;2.23;;;7.60;99.90;;;;;;5074312;28;20546;-44
2023/12/19 09:20:21;;;;;;;4.10;2.07;;;7.60;99.90;;;;;;5073905;28;20210;-46
2023/12/19 09:22:47;;;;;;;3.23;2.03;;;7.70;99.90;;;;;;5056898;28;20196;-43
2023/12/19 09:25:18;;;;;;;4.63;2.50;;;7.70;99.90;;;;;;5074465;28;20205;-43
2023/12/19 09:27:46;;;;;;;6.83;3.43;;;7.70;99.90;;;;;;5074387;28;20647;-43
2023/12/19 09:30:16;;;;;;;5.90;2.60;;;7.80;99.90;;;;;;5074854;28;20207;-45
2023/12/19 09:32:42;;;;;;;6.10;2.53;;;7.80;99.90;;;;;;5075080;28;20194;-43
2023/12/19 09:35:11;;;;;;;6.63;1.93;;;7.80;99.90;;;;;;5073982;28;20266;-43
2023/12/19 09:37:37;;;;;;;5.60;2.50;;;7.80;99.90;;;;;;5073569;28;20188;-42
2023/12/19 09:40:03;;;;;;;6.80;2.60;;;7.80;99.90;;;;;;5055985;28;20668;-44
2023/12/19 09:42:31;;;;;;;6.67;2.50;;;7.80;99.90;;;;;;5073233;28;20663;-44
2023/12/19 09:45:00;;;;;;;4.80;2.67;;;7.90;99.90;;;;;;5072955;28;20218;-45
2023/12/19 09:47:27;;;;;;;4.73;2.30;;;7.90;99.90;;;;;;5073660;28;20172;-45
2023/12/19 09:50:46;;;;;;;7.57;2.80;;;7.90;99.90;;;;;;5039369;28;20300;-43
2023/12/19 09:53:18;;;;;;;13.17;2.63;;;7.90;99.90;;;;;;5074138;28;20183;-43
2023/12/19 09:55:46;;;;;;;4.13;1.60;;;8.00;99.90;;;;;;5073923;28;20175;-46
2023/12/19 09:58:12;;;;;;;9.60;1.83;;;8.00;99.90;;;;;;5073589;28;20263;-45
2023/12/19 10:00:44;;;;;;;6.07;2.13;;;8.00;99.90;;;;;;5056033;28;20627;-44
2023/12/19 10:03:11;;;;;;;3.40;2.00;;;8.00;99.90;;;;;;5073740;28;20173;-43
2023/12/19 10:09:02;;;;;;;6.53;2.37;;;8.00;99.90;;;;;;5073376;28;20170;-44
2023/12/19 10:11:29;;;;;;;4.50;2.10;;;8.10;99.90;;;;;;5055743;28;20262;-45
2023/12/19 10:14:10;;;;;;;4.83;1.90;;;8.10;99.90;;;;;;5072544;28;20663;-44
2023/12/19 10:16:42;;;;;;;6.50;2.00;;;8.10;99.90;;;;;;5073947;28;20158;-43
2023/12/19 10:19:13;;;;;;;3.50;2.10;;;8.20;99.90;;;;;;5073691;28;20206;-44
2023/12/19 10:21:40;;;;;;;7.27;1.90;;;8.20;99.90;;;;;;5073486;28;20245;-45
2023/12/19 10:24:11;;;;;;;5.07;1.90;;;8.20;99.90;;;;;;5073703;28;20632;-43
2023/12/19 10:26:38;;;;;;;8.47;2.10;;;8.20;99.90;;;;;;5073560;28;20164;-44
2023/12/19 10:29:05;;;;;;;6.10;2.30;;;8.30;99.90;;;;;;5053912;28;20270;-45
2023/12/19 10:31:32;;;;;;;6.00;1.87;;;8.30;99.90;;;;;;5066971;28;20587;-42
2023/12/19 10:33:58;;;;;;;3.87;1.80;;;8.30;99.90;;;;;;5073191;28;20255;-43
2023/12/19 10:36:34;;;;;;;6.43;2.10;;;8.40;99.90;;;;;;5055459;28;20278;-44
2023/12/19 10:39:07;;;;;;;4.17;2.37;;;8.40;99.90;;;;;;5073295;28;20198;-42
2023/12/19 10:41:35;;;;;;;6.37;2.77;;;8.40;99.90;;;;;;5072330;28;20731;-43
2023/12/19 10:44:10;;;;;;;3.70;1.97;;;8.40;99.90;;;;;;5072907;28;20217;-44
2023/12/19 10:46:38;;;;;;;5.70;2.20;;;8.40;99.90;;;;;;5073373;28;20174;-44
2023/12/19 10:49:05;;;;;;;4.27;1.80;;;8.40;99.90;;;;;;5055494;28;20233;-43
2023/12/19 10:51:35;;;;;;;6.27;2.77;;;8.40;99.90;;;;;;5055258;28;20183;-43
2023/12/19 10:54:14;;;;;;;6.33;2.53;;;8.50;99.90;;;;;;5073074;28;20184;-44
2023/12/19 10:57:02;;;;;;;4.17;2.10;;;8.40;99.90;;;;;;5073216;28;20183;-42
2023/12/19 11:00:13;;;;;;;6.23;2.47;;;8.50;99.90;;;;;;5073661;28;20202;-42
2023/12/19 11:03:07;;;;;;;6.53;2.47;;;8.40;99.90;;;;;;5070870;28;20300;-44
2023/12/19 11:05:42;;;;;;;5.27;2.83;;;8.40;99.90;;;;;;5073089;28;20545;-42
2023/12/19 11:08:28;;;;;;;7.57;2.70;;;8.40;99.90;;;;;;5072730;28;20181;-43
2023/12/19 11:11:10;;;;;;;6.47;2.73;;;8.40;99.90;;;;;;5072694;28;20692;-42
2023/12/19 11:13:37;;;;;;;6.77;2.90;;;8.40;99.90;;;;;;5075637;28;20224;-43
2023/12/19 11:16:27;;;;;;;7.17;2.17;;;8.40;99.90;;;;;;5058944;28;20196;-44
2023/12/19 11:19:08;;;;;;;4.40;2.57;;;8.30;99.90;;;;;;5071207;28;20268;-43
2023/12/19 11:21:42;;;;;;;5.57;2.57;;;8.30;99.90;;;;;;5075904;28;20204;-45
2023/12/19 11:24:34;;;;;;;4.23;2.93;;;8.30;99.90;;;;;;5076470;28;20159;-43
2023/12/19 11:27:38;;;;;;;2.53;1.73;;;8.30;99.90;;;;;;5068823;28;20191;-43
2023/12/19 11:30:28;;;;;;;5.50;3.10;;;8.20;99.90;;;;;;5080855;28;20264;-44
2023/12/19 11:33:04;;;;;;;3.67;2.53;;;8.20;99.90;;;;;;5083896;28;20656;-43
2023/12/19 11:35:31;;;;;;;8.00;3.10;;;8.10;99.90;;;;;;5084427;28;20195;-43
2023/12/19 11:38:15;;;;;;;6.03;2.70;;;8.10;99.90;;;;;;5042916;28;20296;-44
2023/12/19 11:40:58;;;;;;;4.57;2.03;;;8.10;99.90;;;;;;5076067;28;20207;-44
2023/12/19 11:43:37;;;;;;;4.77;3.10;;;8.10;99.90;;;;;;5042610;28;20195;-44
2023/12/19 11:46:11;;;;;;;6.30;2.80;;;8.10;99.90;;;;;;5078809;28;20191;-43
2023/12/19 11:48:41;;;;;;;4.93;2.47;;;8.10;99.90;;;;;;5078064;28;20526;-42
2023/12/19 11:51:08;;;;;;;4.47;2.77;;;8.10;99.90;;;;;;5076911;28;20214;-44
2023/12/19 11:53:42;;;;;;;6.00;2.30;;;8.10;99.90;;;;;;5077129;28;20181;-43
2023/12/19 11:56:09;;;;;;;5.53;2.70;;;8.10;99.90;;;;;;5043220;28;20229;-44
2023/12/19 11:58:45;;;;;;;4.87;3.30;;;8.10;99.90;;;;;;5077397;28;20183;-44
2023/12/19 12:01:12;;;;;;;8.63;3.10;;;8.10;99.90;;;;;;5075805;28;20211;-44
2023/12/19 12:03:40;;;;;;;6.83;3.13;;;8.10;99.90;;;;;;5057984;28;20183;-43
2023/12/19 12:06:17;;;;;;;8.83;3.60;;;8.10;99.90;;;;;;5075519;28;20227;-43
2023/12/19 12:08:59;;;;;;;5.07;2.73;;;8.10;99.90;;;;;;5076495;28;20156;-44
2023/12/19 12:11:25;;;;;;;5.17;2.60;;;8.10;99.90;;;;;;5075476;28;20274;-45
2023/12/19 12:14:01;;;;;;;5.57;3.10;;;8.20;99.90;;;;;;5057687;28;20185;-44
2023/12/19 12:16:43;;;;;;;6.83;3.30;;;8.10;99.90;;;;;;5075678;28;20578;-44
2023/12/19 12:19:14;;;;;;;10.90;2.67;;;8.20;99.90;;;;;;5058293;28;20255;-44
2023/12/19 12:25:03;;;;;;;7.47;3.10;;;8.10;99.90;;;;;;5074155;28;20240;-44
2023/12/19 12:27:34;;;;;;;9.30;3.30;;;8.10;99.90;;;;;;5075346;28;20538;-44
2023/12/19 12:30:07;;;;;;;9.63;3.20;;;8.20;99.90;;;;;;5075258;28;20206;-46
2023/12/19 12:32:33;;;;;;;9.43;3.30;;;8.10;99.90;;;;;;5076241;28;20177;-44
2023/12/19 12:34:59;;;;;;;7.17;2.30;;;8.20;99.90;;;;;;5075748;28;20666;-47
2023/12/19 12:37:24;;;;;;;6.60;3.17;;;8.20;99.90;;;;;;5057297;28;20518;-47
2023/12/19 12:39:50;;;;;;;10.87;3.63;;;8.10;99.90;;;;;;5057136;28;20211;-47
2023/12/19 12:42:23;;;;;;;4.00;2.70;;;8.20;99.90;;;;;;5075260;28;20182;-48
2023/12/19 12:45:01;;;;;;;5.50;3.17;;;8.20;99.90;;;;;;5072150;28;20222;-47
2023/12/19 12:47:28;;;;;;;5.87;2.97;;;8.10;99.90;;;;;;5075068;28;20178;-47
2023/12/19 12:50:04;;;;;;;9.00;2.73;;;8.20;99.90;;;;;;5057221;28;20207;-49
2023/12/19 12:52:32;;;;;;;6.70;2.67;;;8.10;99.90;;;;;;5057031;28;20209;-46
2023/12/19 12:55:06;;;;;;;8.63;3.37;;;8.10;99.90;;;;;;5056761;28;20189;-47
2023/12/19 12:57:32;;;;;;;11.83;2.87;;;8.10;99.90;;;;;;5074723;28;20195;-47
2023/12/19 12:59:58;;;;;;;5.63;2.97;;;8.00;99.90;;;;;;5056598;28;20680;-47
2023/12/19 13:02:24;;;;;;;8.67;3.27;;;8.00;99.90;;;;;;5056802;28;20189;-47
2023/12/19 13:04:50;;;;;;;6.90;3.27;;;8.00;99.90;;;;;;5074317;28;20217;-47
2023/12/19 13:07:16;;;;;;;6.17;3.03;;;8.10;99.90;;;;;;5074102;28;20199;-47
2023/12/19 13:09:46;;;;;;;12.20;2.83;;;8.10;99.90;;;;;;5074277;28;20579;-45
2023/12/19 13:12:12;;;;;;;10.57;3.60;;;8.00;99.90;;;;;;5074808;28;20160;-47
2023/12/19 13:14:41;;;;;;;7.40;3.63;;;8.10;99.90;;;;;;5057071;28;20188;-47
2023/12/19 13:17:10;;;;;;;4.77;2.77;;;8.10;99.90;;;;;;5056536;28;20183;-46
2023/12/19 13:19:36;;;;;;;13.30;3.97;;;8.10;99.90;;;;;;5074675;28;20204;-48
2023/12/19 13:22:03;;;;;;;8.03;3.37;;;8.00;99.90;;;;;;5074418;28;20179;-48
2023/12/19 13:24:29;;;;;;;8.93;2.90;;;8.00;99.90;;;;;;5074028;28;20192;-47
2023/12/19 13:26:55;;;;;;;6.93;3.07;;;8.00;99.90;;;;;;5039819;28;20188;-47
2023/12/19 13:29:26;;;;;;;8.27;3.40;;;8.00;99.90;;;;;;5074251;28;20229;-47
2023/12/19 13:31:54;;;;;;;8.60;3.30;;;8.00;99.90;;;;;;5056264;28;20184;-48
2023/12/19 13:34:19;;;;;;;6.87;2.63;;;8.00;99.90;;;;;;5073852;28;20183;-48
2023/12/19 13:36:48;;;;;;;6.80;2.80;;;8.00;99.90;;;;;;5073729;28;20183;-48